createdAt,value
2019-05-21T00:00:10.354Z,20.60
2019-05-21T00:01:11.334Z,19.70
2019-05-21T00:02:10.302Z,19.40
2019-05-21T00:03:10.268Z,22.80
2019-05-21T00:04:10.240Z,18.90
2019-05-21T00:05:11.218Z,20.40
2019-05-21T00:06:10.184Z,19.00
2019-05-21T00:07:10.149Z,19.90
2019-05-21T00:08:10.130Z,18.20
2019-05-21T00:09:10.106Z,18.10
2019-05-21T00:10:10.066Z,19.20
2019-05-21T00:11:10.056Z,19.70
2019-05-21T00:12:10.017Z,19.40
2019-05-21T00:13:10.002Z,17.00
2019-05-21T00:14:09.961Z,16.70
2019-05-21T00:15:09.940Z,17.10
2019-05-21T00:16:09.903Z,17.40
2019-05-21T00:17:09.884Z,16.30
2019-05-21T00:18:09.851Z,16.40
2019-05-21T00:19:10.850Z,17.90
2019-05-21T00:20:09.867Z,15.90
2019-05-21T00:21:09.776Z,17.00
2019-05-21T00:22:09.741Z,17.30
2019-05-21T00:23:09.715Z,16.00
2019-05-21T00:24:09.686Z,16.50
2019-05-21T00:25:09.658Z,17.00
2019-05-21T00:26:09.634Z,15.90
2019-05-21T00:27:10.630Z,17.40
2019-05-21T00:28:09.573Z,17.30
2019-05-21T00:29:09.556Z,18.20
2019-05-21T00:30:09.511Z,16.90
2019-05-21T00:31:09.487Z,16.40
2019-05-21T00:32:09.466Z,15.40
2019-05-21T00:33:09.435Z,17.70
2019-05-21T00:34:09.407Z,19.20
2019-05-21T00:35:09.382Z,18.30
2019-05-21T00:36:09.351Z,16.90
2019-05-21T00:37:09.326Z,18.20
2019-05-21T00:38:09.293Z,19.50
2019-05-21T00:39:09.261Z,19.20
2019-05-21T00:40:09.233Z,20.50
2019-05-21T00:41:09.220Z,21.70
2019-05-21T00:42:09.182Z,20.20
2019-05-21T00:43:09.153Z,20.10
2019-05-21T00:44:09.233Z,19.40
2019-05-21T00:45:10.109Z,20.80
2019-05-21T00:46:09.068Z,22.30
2019-05-21T00:47:09.037Z,22.40
2019-05-21T00:48:09.024Z,23.30
2019-05-21T00:49:08.990Z,25.20
2019-05-21T00:50:09.006Z,25.90
2019-05-21T00:51:08.947Z,26.30
2019-05-21T00:52:09.378Z,27.00
2019-05-21T00:53:08.872Z,26.70
2019-05-21T00:54:08.843Z,28.00
2019-05-21T00:55:10.478Z,26.20
2019-05-21T00:56:08.798Z,27.10
2019-05-21T00:57:08.764Z,31.00
2019-05-21T00:58:29.736Z,29.10
2019-05-21T00:59:08.710Z,29.00
2019-05-21T01:00:29.681Z,32.80
2019-05-21T01:01:08.653Z,33.70
2019-05-21T01:02:09.629Z,32.60
2019-05-21T01:03:08.594Z,35.20
2019-05-21T01:04:15.457Z,33.40
2019-05-21T01:05:08.550Z,33.70
2019-05-21T01:06:17.493Z,33.80
2019-05-21T01:07:08.480Z,35.90
2019-05-21T01:08:08.463Z,38.20
2019-05-21T01:09:08.432Z,38.20
2019-05-21T01:10:10.421Z,35.20
2019-05-21T01:11:08.385Z,39.20
2019-05-21T01:12:16.053Z,36.40
2019-05-21T01:13:08.326Z,37.90
2019-05-21T01:15:21.551Z,34.00
2019-05-21T01:16:21.517Z,37.40
2019-05-21T01:17:21.484Z,40.40
2019-05-21T01:18:21.460Z,35.20
2019-05-21T01:19:21.424Z,40.20
2019-05-21T01:20:21.402Z,37.90
2019-05-21T01:21:21.364Z,34.60
2019-05-21T01:22:21.341Z,33.30
2019-05-21T01:23:21.318Z,35.30
2019-05-21T01:24:21.287Z,34.30
2019-05-21T01:25:21.250Z,29.50
2019-05-21T01:27:21.205Z,30.00
2019-05-21T01:28:21.175Z,33.00
2019-05-21T01:29:21.147Z,35.50
2019-05-21T01:30:21.163Z,34.70
2019-05-21T01:31:21.094Z,31.10
2019-05-21T01:32:22.065Z,35.80
2019-05-21T01:33:21.044Z,35.80
2019-05-21T01:34:27.947Z,32.10
2019-05-21T01:35:20.982Z,31.90
2019-05-21T01:36:20.953Z,33.60
2019-05-21T01:37:20.919Z,32.30
2019-05-21T01:38:20.898Z,35.20
2019-05-21T01:39:20.864Z,33.80
2019-05-21T01:40:20.837Z,32.00
2019-05-21T01:41:20.813Z,32.70
2019-05-21T01:42:20.792Z,29.00
2019-05-21T01:43:20.775Z,32.80
2019-05-21T01:44:20.746Z,35.20
2019-05-21T01:45:20.704Z,32.90
2019-05-21T01:46:21.686Z,34.60
2019-05-21T01:47:20.644Z,28.20
2019-05-21T01:48:20.620Z,32.70
2019-05-21T01:49:20.588Z,36.00
2019-05-21T01:50:20.569Z,36.50
2019-05-21T01:51:20.536Z,30.80
2019-05-21T01:52:20.510Z,33.80
2019-05-21T01:53:20.483Z,30.60
2019-05-21T01:54:20.475Z,32.30
2019-05-21T01:55:20.417Z,32.70
2019-05-21T01:56:20.398Z,33.00
2019-05-21T01:57:20.381Z,31.80
2019-05-21T01:58:20.346Z,34.00
2019-05-21T01:59:20.309Z,32.70
2019-05-21T02:00:20.283Z,28.30
2019-05-21T02:01:20.248Z,32.00
2019-05-21T02:02:20.241Z,31.30
2019-05-21T02:03:20.201Z,34.00
2019-05-21T02:04:20.185Z,31.10
2019-05-21T02:05:32.193Z,35.30
2019-05-21T02:06:20.105Z,29.30
2019-05-21T02:07:20.097Z,31.70
2019-05-21T02:08:20.055Z,34.70
2019-05-21T02:09:20.034Z,33.10
2019-05-21T02:10:19.999Z,33.20
2019-05-21T02:11:19.972Z,32.90
2019-05-21T02:12:19.941Z,31.60
2019-05-21T02:13:19.923Z,32.10
2019-05-21T02:14:19.891Z,35.20
2019-05-21T02:15:19.905Z,34.90
2019-05-21T02:16:19.833Z,34.50
2019-05-21T02:17:19.811Z,36.20
2019-05-21T02:18:19.769Z,34.00
2019-05-21T02:19:19.759Z,38.10
2019-05-21T02:20:19.715Z,39.20
2019-05-21T02:21:19.696Z,41.00
2019-05-21T02:22:19.664Z,41.00
2019-05-21T02:23:19.649Z,39.30
2019-05-21T02:24:19.607Z,40.80
2019-05-21T02:25:19.685Z,44.00
2019-05-21T02:26:19.550Z,46.60
2019-05-21T02:27:20.532Z,41.60
2019-05-21T02:28:19.484Z,44.70
2019-05-21T02:29:19.478Z,45.60
2019-05-21T02:30:19.493Z,40.80
2019-05-21T02:31:19.404Z,39.30
2019-05-21T02:32:19.386Z,43.50
2019-05-21T02:33:19.360Z,43.10
2019-05-21T02:34:19.332Z,42.70
2019-05-21T02:35:19.318Z,45.20
2019-05-21T02:36:19.271Z,40.80
2019-05-21T02:37:19.257Z,48.10
2019-05-21T02:38:19.214Z,43.90
2019-05-21T02:39:19.197Z,45.80
2019-05-21T02:40:19.157Z,46.20
2019-05-21T02:41:19.136Z,45.70
2019-05-21T02:42:19.093Z,42.30
2019-05-21T02:43:20.083Z,46.60
2019-05-21T02:44:19.044Z,48.70
2019-05-21T02:45:25.986Z,43.80
2019-05-21T02:46:18.984Z,50.50
2019-05-21T02:47:18.963Z,48.00
2019-05-21T02:48:18.929Z,45.10
2019-05-21T02:49:18.901Z,47.80
2019-05-21T02:50:18.876Z,46.90
2019-05-21T02:51:25.480Z,48.70
2019-05-21T02:52:18.885Z,46.10
2019-05-21T02:53:18.797Z,48.30
2019-05-21T02:54:18.783Z,44.40
2019-05-21T02:55:18.735Z,45.80
2019-05-21T02:56:18.706Z,43.60
2019-05-21T02:57:20.685Z,49.10
2019-05-21T02:58:18.650Z,48.30
2019-05-21T02:59:19.625Z,44.40
2019-05-21T03:00:18.601Z,50.00
2019-05-21T03:01:27.477Z,44.80
2019-05-21T03:02:18.553Z,45.10
2019-05-21T03:03:19.512Z,45.70
2019-05-21T03:04:18.567Z,46.30
2019-05-21T03:05:18.470Z,46.30
2019-05-21T03:06:18.419Z,44.70
2019-05-21T03:07:33.985Z,49.10
2019-05-21T03:08:18.370Z,45.90
2019-05-21T03:09:18.353Z,44.60
2019-05-21T03:10:18.312Z,48.50
2019-05-21T03:11:18.288Z,50.10
2019-05-21T03:12:18.263Z,40.60
2019-05-21T03:13:18.229Z,42.60
2019-05-21T03:14:18.196Z,46.80
2019-05-21T03:15:18.177Z,48.10
2019-05-21T03:16:18.137Z,43.90
2019-05-21T03:17:18.128Z,50.80
2019-05-21T03:18:18.084Z,45.10
2019-05-21T03:19:18.142Z,41.90
2019-05-21T03:20:18.030Z,40.00
2019-05-21T03:21:18.030Z,45.70
2019-05-21T03:22:17.969Z,41.50
2019-05-21T03:23:17.972Z,45.20
2019-05-21T03:24:17.912Z,41.40
2019-05-21T03:25:17.889Z,39.00
2019-05-21T03:26:17.862Z,41.20
2019-05-21T03:27:17.846Z,41.80
2019-05-21T03:28:17.799Z,43.00
2019-05-21T03:29:17.779Z,42.60
2019-05-21T03:30:17.759Z,41.20
2019-05-21T03:31:17.730Z,42.80
2019-05-21T03:32:17.699Z,37.20
2019-05-21T03:33:19.729Z,38.50
2019-05-21T03:34:17.633Z,37.80
2019-05-21T03:35:18.612Z,40.20
2019-05-21T03:36:32.583Z,36.40
2019-05-21T03:37:41.497Z,40.40
2019-05-21T03:38:17.511Z,29.90
2019-05-21T03:39:19.453Z,40.40
2019-05-21T03:40:17.512Z,36.60
2019-05-21T03:41:18.451Z,35.20
2019-05-21T03:42:17.409Z,39.80
2019-05-21T03:43:18.390Z,35.90
2019-05-21T03:44:17.351Z,37.80
2019-05-21T03:46:17.298Z,35.70
2019-05-21T03:47:18.275Z,34.70
2019-05-21T03:48:17.236Z,31.70
2019-05-21T03:49:25.010Z,35.50
2019-05-21T03:50:17.176Z,37.80
2019-05-21T03:51:23.991Z,34.30
2019-05-21T03:52:17.126Z,38.60
2019-05-21T03:53:17.118Z,35.60
2019-05-21T03:54:17.063Z,39.50
2019-05-21T03:55:26.001Z,38.40
2019-05-21T03:56:17.015Z,37.60
2019-05-21T03:57:16.985Z,38.10
2019-05-21T03:58:16.962Z,44.10
2019-05-21T03:59:16.938Z,41.40
2019-05-21T04:00:16.900Z,41.70
2019-05-21T04:01:16.873Z,44.00
2019-05-21T04:02:16.852Z,44.00
2019-05-21T04:03:16.907Z,42.60
2019-05-21T04:04:16.804Z,42.80
2019-05-21T04:05:16.771Z,43.00
2019-05-21T04:06:16.735Z,43.90
2019-05-21T04:07:16.707Z,45.20
2019-05-21T04:08:16.698Z,42.00
2019-05-21T04:09:16.659Z,41.60
2019-05-21T04:10:16.622Z,45.20
2019-05-21T04:11:16.659Z,44.30
2019-05-21T04:12:16.604Z,44.80
2019-05-21T04:13:18.611Z,40.20
2019-05-21T04:14:16.514Z,45.20
2019-05-21T04:15:16.487Z,44.00
2019-05-21T04:16:16.459Z,47.10
2019-05-21T04:17:16.437Z,48.40
2019-05-21T04:18:16.401Z,41.70
2019-05-21T04:19:18.389Z,48.70
2019-05-21T04:20:16.360Z,46.30
2019-05-21T04:21:16.335Z,50.40
2019-05-21T04:22:16.286Z,52.20
2019-05-21T04:23:16.272Z,47.90
2019-05-21T04:24:16.293Z,44.10
2019-05-21T04:25:16.209Z,48.00
2019-05-21T04:26:16.174Z,43.60
2019-05-21T04:27:16.149Z,43.00
2019-05-21T04:28:16.142Z,47.80
2019-05-21T04:29:16.103Z,47.60
2019-05-21T04:30:16.081Z,36.60
2019-05-21T04:31:16.065Z,46.80
2019-05-21T04:32:16.041Z,43.60
2019-05-21T04:33:16.002Z,46.20
2019-05-21T04:34:15.946Z,43.10
2019-05-21T04:35:17.934Z,42.80
2019-05-21T04:36:15.893Z,45.30
2019-05-21T04:37:17.521Z,42.10
2019-05-21T04:38:15.874Z,40.10
2019-05-21T04:39:15.852Z,42.70
2019-05-21T04:40:15.831Z,42.20
2019-05-21T04:41:15.774Z,39.70
2019-05-21T04:42:15.741Z,42.00
2019-05-21T04:43:15.714Z,46.00
2019-05-21T04:44:15.685Z,37.60
2019-05-21T04:45:15.727Z,39.20
2019-05-21T04:46:15.595Z,43.90
2019-05-21T04:47:15.606Z,40.20
2019-05-21T04:48:15.567Z,40.70
2019-05-21T04:49:15.572Z,40.80
2019-05-21T04:50:15.526Z,44.70
2019-05-21T04:51:15.492Z,40.10
2019-05-21T04:52:15.446Z,36.60
2019-05-21T04:53:15.430Z,39.10
2019-05-21T04:54:15.381Z,41.10
2019-05-21T04:55:15.356Z,39.10
2019-05-21T04:56:15.396Z,36.30
2019-05-21T04:57:15.290Z,37.20
2019-05-21T04:58:15.337Z,38.70
2019-05-21T04:59:15.246Z,38.80
2019-05-21T05:00:15.205Z,36.90
2019-05-21T05:01:15.179Z,38.70
2019-05-21T05:02:15.154Z,38.90
2019-05-21T05:03:15.183Z,34.50
2019-05-21T05:04:20.620Z,38.00
2019-05-21T05:05:15.071Z,34.20
2019-05-21T05:06:15.081Z,32.70
2019-05-21T05:07:27.500Z,36.40
2019-05-21T05:08:15.006Z,36.50
2019-05-21T05:09:14.956Z,29.90
2019-05-21T05:10:14.927Z,33.70
2019-05-21T05:11:14.892Z,35.00
2019-05-21T05:12:14.879Z,36.70
2019-05-21T05:13:15.853Z,36.40
2019-05-21T05:14:14.864Z,35.90
2019-05-21T05:15:14.781Z,34.80
2019-05-21T05:16:14.758Z,35.90
2019-05-21T05:17:14.771Z,39.70
2019-05-21T05:18:14.692Z,35.30
2019-05-21T05:19:16.684Z,37.00
2019-05-21T05:20:14.648Z,32.90
2019-05-21T05:21:14.605Z,34.90
2019-05-21T05:22:14.584Z,36.30
2019-05-21T05:23:14.549Z,39.80
2019-05-21T05:24:14.507Z,37.80
2019-05-21T05:25:14.519Z,38.60
2019-05-21T05:26:14.497Z,38.60
2019-05-21T05:27:15.436Z,38.80
2019-05-21T05:28:14.414Z,40.40
2019-05-21T05:29:14.389Z,38.90
2019-05-21T05:30:14.345Z,35.20
2019-05-21T05:31:15.335Z,38.10
2019-05-21T05:32:14.329Z,37.50
2019-05-21T05:33:15.271Z,37.30
2019-05-21T05:34:14.293Z,36.30
2019-05-21T05:35:14.206Z,38.30
2019-05-21T05:36:14.180Z,38.60
2019-05-21T05:37:14.182Z,39.20
2019-05-21T05:38:14.125Z,37.50
2019-05-21T05:39:14.101Z,38.40
2019-05-21T05:40:14.293Z,35.10
2019-05-21T05:41:14.061Z,33.80
2019-05-21T05:42:13.996Z,36.50
2019-05-21T05:43:13.972Z,34.60
2019-05-21T05:44:13.945Z,33.60
2019-05-21T05:45:14.017Z,35.20
2019-05-21T05:46:13.930Z,33.80
2019-05-21T05:47:13.884Z,32.40
2019-05-21T05:48:13.851Z,31.60
2019-05-21T05:49:13.815Z,28.50
2019-05-21T05:50:13.807Z,29.50
2019-05-21T05:51:13.785Z,27.50
2019-05-21T05:52:13.740Z,30.80
2019-05-21T05:53:13.697Z,28.60
2019-05-21T05:54:13.665Z,25.60
2019-05-21T05:55:13.654Z,28.60
2019-05-21T05:56:13.679Z,26.10
2019-05-21T05:57:13.585Z,26.20
2019-05-21T05:58:13.554Z,25.10
2019-05-21T05:59:14.602Z,27.30
2019-05-21T06:00:13.490Z,24.20
2019-05-21T06:01:13.501Z,26.50
2019-05-21T06:02:13.459Z,25.30
2019-05-21T06:03:13.432Z,26.10
2019-05-21T06:04:13.385Z,25.40
2019-05-21T06:05:13.357Z,24.60
2019-05-21T06:06:13.321Z,25.90
2019-05-21T06:07:13.278Z,24.20
2019-05-21T06:08:13.250Z,23.30
2019-05-21T06:09:13.232Z,28.30
2019-05-21T06:10:13.214Z,24.00
2019-05-21T06:11:13.186Z,25.80
2019-05-21T06:12:13.146Z,23.60
2019-05-21T06:13:14.123Z,24.80
2019-05-21T06:14:13.085Z,22.30
2019-05-21T06:15:13.086Z,22.80
2019-05-21T06:16:13.025Z,19.70
2019-05-21T06:17:12.996Z,22.50
2019-05-21T06:18:13.020Z,21.90
2019-05-21T06:19:12.943Z,21.10
2019-05-21T06:20:13.019Z,20.90
2019-05-21T06:21:12.881Z,20.80
2019-05-21T06:22:12.936Z,21.00
2019-05-21T06:23:12.841Z,19.60
2019-05-21T06:24:13.607Z,20.30
2019-05-21T06:25:12.773Z,21.00
2019-05-21T06:26:12.769Z,18.20
2019-05-21T06:27:12.701Z,18.90
2019-05-21T06:28:12.766Z,18.70
2019-05-21T06:29:12.689Z,20.20
2019-05-21T06:30:12.676Z,21.70
2019-05-21T06:31:12.590Z,19.20
2019-05-21T06:32:12.603Z,18.40
2019-05-21T06:33:12.539Z,18.50
2019-05-21T06:34:12.676Z,16.90
2019-05-21T06:35:12.482Z,16.00
2019-05-21T06:36:12.514Z,20.00
2019-05-21T06:37:12.431Z,18.00
2019-05-21T06:38:18.079Z,18.70
2019-05-21T06:39:12.368Z,16.30
2019-05-21T06:40:12.435Z,18.40
2019-05-21T06:41:12.313Z,15.90
2019-05-21T06:42:29.141Z,16.80
2019-05-21T06:43:12.250Z,15.80
2019-05-21T06:44:12.231Z,17.30
2019-05-21T06:45:19.132Z,17.20
2019-05-21T06:46:12.183Z,15.00
2019-05-21T06:47:12.198Z,15.60
2019-05-21T06:48:12.115Z,18.10
2019-05-21T06:49:12.098Z,14.60
2019-05-21T06:50:12.044Z,16.20
2019-05-21T06:51:12.105Z,15.40
2019-05-21T06:52:11.984Z,15.50
2019-05-21T06:53:12.045Z,16.80
2019-05-21T06:54:11.929Z,15.20
2019-05-21T06:55:12.050Z,15.60
2019-05-21T06:56:12.466Z,15.00
2019-05-21T06:57:12.939Z,15.40
2019-05-21T06:58:11.826Z,17.50
2019-05-21T06:59:12.825Z,14.40
2019-05-21T07:00:11.755Z,14.50
2019-05-21T07:01:11.816Z,16.80
2019-05-21T07:02:11.703Z,13.90
2019-05-21T07:04:11.649Z,13.30
2019-05-21T07:05:11.670Z,15.20
2019-05-21T07:06:11.587Z,14.00
2019-05-21T07:07:47.602Z,15.30
2019-05-21T07:08:11.526Z,13.40
2019-05-21T07:09:11.523Z,15.00
2019-05-21T07:10:18.125Z,13.60
2019-05-21T07:11:11.441Z,14.00
2019-05-21T07:12:12.512Z,15.40
2019-05-21T07:13:11.381Z,14.80
2019-05-21T07:14:12.430Z,15.70
2019-05-21T07:15:11.324Z,13.70
2019-05-21T07:16:26.158Z,13.60
2019-05-21T07:17:11.273Z,14.30
2019-05-21T07:18:20.129Z,14.40
2019-05-21T07:19:11.211Z,13.10
2019-05-21T07:20:32.225Z,15.60
2019-05-21T07:21:11.143Z,15.90
2019-05-21T07:22:13.576Z,17.00
2019-05-21T07:23:11.121Z,16.00
2019-05-21T07:24:12.076Z,18.40
2019-05-21T07:25:11.115Z,16.60
2019-05-21T07:26:11.063Z,20.20
2019-05-21T07:27:10.994Z,19.10
2019-05-21T07:28:17.643Z,16.40
2019-05-21T07:29:10.921Z,20.90
2019-05-21T07:30:11.920Z,19.00
2019-05-21T07:31:10.860Z,19.70
2019-05-21T07:32:18.587Z,17.10
2019-05-21T07:33:10.984Z,20.00
2019-05-21T07:34:10.813Z,16.70
2019-05-21T07:35:10.748Z,15.30
2019-05-21T07:36:10.827Z,17.40
2019-05-21T07:37:10.696Z,15.40
2019-05-21T07:38:10.760Z,14.70
2019-05-21T07:39:10.702Z,15.90
2019-05-21T07:40:10.599Z,14.90
2019-05-21T07:41:10.605Z,14.20
2019-05-21T07:42:10.562Z,14.20
2019-05-21T07:43:10.649Z,16.30
2019-05-21T07:44:10.493Z,13.90
2019-05-21T07:45:10.536Z,15.70
2019-05-21T07:46:10.433Z,17.90
2019-05-21T07:47:10.460Z,14.40
2019-05-21T07:48:10.368Z,15.80
2019-05-21T07:49:10.502Z,15.40
2019-05-21T07:50:10.320Z,15.00
2019-05-21T07:51:10.443Z,14.00
2019-05-21T07:52:10.261Z,15.00
2019-05-21T07:53:10.287Z,13.70
2019-05-21T07:54:10.202Z,12.90
2019-05-21T07:55:10.195Z,14.60
2019-05-21T07:56:10.144Z,15.70
2019-05-21T07:57:10.204Z,13.10
2019-05-21T07:58:10.095Z,14.10
2019-05-21T07:59:10.129Z,13.90
2019-05-21T08:00:10.033Z,13.90
2019-05-21T08:01:10.021Z,16.40
2019-05-21T08:02:09.980Z,15.50
2019-05-21T08:03:10.048Z,16.30
2019-05-21T08:04:09.923Z,13.60
2019-05-21T08:05:09.966Z,14.40
2019-05-21T08:06:09.859Z,12.10
2019-05-21T08:07:09.868Z,14.80
2019-05-21T08:08:09.797Z,13.80
2019-05-21T08:09:13.964Z,13.50
2019-05-21T08:10:09.814Z,14.60
2019-05-21T08:11:16.664Z,14.50
2019-05-21T08:12:27.849Z,15.00
2019-05-21T08:13:09.719Z,13.50
2019-05-21T08:14:09.650Z,12.70
2019-05-21T08:15:24.736Z,12.70
2019-05-21T08:16:09.653Z,15.50
2019-05-21T08:17:09.682Z,13.00
2019-05-21T08:18:09.570Z,13.50
2019-05-21T08:19:09.644Z,13.10
2019-05-21T08:20:10.628Z,15.60
2019-05-21T08:21:09.488Z,12.40
2019-05-21T08:22:09.418Z,14.20
2019-05-21T08:23:09.480Z,12.40
2019-05-21T08:24:09.338Z,12.20
2019-05-21T08:25:13.395Z,12.60
2019-05-21T08:26:09.285Z,11.20
2019-05-21T08:27:09.310Z,14.50
2019-05-21T08:28:09.239Z,13.00
2019-05-21T08:29:09.312Z,12.80
2019-05-21T08:30:09.166Z,11.30
2019-05-21T08:31:09.229Z,13.00
2019-05-21T08:32:09.099Z,12.40
2019-05-21T08:33:09.137Z,12.90
2019-05-21T08:34:09.067Z,12.40
2019-05-21T08:35:09.039Z,11.80
2019-05-21T08:36:09.007Z,10.40
2019-05-21T08:37:09.034Z,12.70
2019-05-21T08:38:08.950Z,13.30
2019-05-21T08:39:08.913Z,12.60
2019-05-21T08:40:09.989Z,12.00
2019-05-21T08:41:08.850Z,11.90
2019-05-21T08:42:08.881Z,13.10
2019-05-21T08:43:08.819Z,11.60
2019-05-21T08:44:08.885Z,11.70
2019-05-21T08:45:08.762Z,12.00
2019-05-21T08:46:08.766Z,12.70
2019-05-21T08:47:08.687Z,12.00
2019-05-21T08:48:08.682Z,11.70
2019-05-21T08:49:08.620Z,12.10
2019-05-21T08:50:08.691Z,10.70
2019-05-21T08:51:08.559Z,11.80
2019-05-21T08:52:08.593Z,11.30
2019-05-21T08:53:08.580Z,11.70
2019-05-21T08:54:08.507Z,12.80
2019-05-21T08:55:08.456Z,10.20
2019-05-21T08:56:08.524Z,10.20
2019-05-21T08:57:08.393Z,10.70
2019-05-21T08:58:08.444Z,12.50
2019-05-21T08:59:08.343Z,12.60
2019-05-21T09:00:08.430Z,15.80
2019-05-21T09:01:08.286Z,12.20
2019-05-21T09:02:08.301Z,14.50
2019-05-21T09:03:08.225Z,16.20
2019-05-21T09:04:08.217Z,14.10
2019-05-21T09:05:08.174Z,15.30
2019-05-21T09:06:08.231Z,15.00
2019-05-21T09:07:08.108Z,16.20
2019-05-21T09:08:08.149Z,14.70
2019-05-21T09:09:08.053Z,16.80
2019-05-21T09:10:08.052Z,13.50
2019-05-21T09:11:07.998Z,15.60
2019-05-21T09:12:08.066Z,16.80
2019-05-21T09:13:07.939Z,15.60
2019-05-21T09:14:07.982Z,18.20
2019-05-21T09:15:07.896Z,18.60
2019-05-21T09:16:07.890Z,18.90
2019-05-21T09:17:07.827Z,17.00
2019-05-21T09:18:07.902Z,20.80
2019-05-21T09:19:07.783Z,20.20
2019-05-21T09:20:07.847Z,21.40
2019-05-21T09:21:07.738Z,19.70
2019-05-21T09:22:15.642Z,18.60
2019-05-21T09:23:07.653Z,18.40
2019-05-21T09:24:07.666Z,15.70
2019-05-21T09:25:07.602Z,17.60
2019-05-21T09:26:07.743Z,19.70
2019-05-21T09:27:07.542Z,15.90
2019-05-21T09:28:07.593Z,15.60
2019-05-21T09:29:07.484Z,16.30
2019-05-21T09:30:09.558Z,17.60
2019-05-21T09:31:07.431Z,14.80
2019-05-21T09:32:07.420Z,14.00
2019-05-21T09:33:07.393Z,14.30
2019-05-21T09:34:08.467Z,12.20
2019-05-21T09:35:07.340Z,15.80
2019-05-21T09:36:07.404Z,14.60
2019-05-21T09:37:19.382Z,13.60
2019-05-21T09:38:07.260Z,12.60
2019-05-21T09:39:07.204Z,16.00
2019-05-21T09:40:07.270Z,12.80
2019-05-21T09:41:07.156Z,15.00
2019-05-21T09:42:07.179Z,13.70
2019-05-21T09:43:07.099Z,13.60
2019-05-21T09:44:07.092Z,14.00
2019-05-21T09:45:07.048Z,14.80
2019-05-21T09:46:07.008Z,13.70
2019-05-21T09:47:06.980Z,14.20
2019-05-21T09:48:08.045Z,16.00
2019-05-21T09:49:06.932Z,13.30
2019-05-21T09:50:07.074Z,15.50
2019-05-21T09:51:06.877Z,13.80
2019-05-21T09:52:06.954Z,13.40
2019-05-21T09:53:06.803Z,13.30
2019-05-21T09:54:06.801Z,16.80
2019-05-21T09:55:06.754Z,12.30
2019-05-21T09:56:06.735Z,13.70
2019-05-21T09:57:06.705Z,13.30
2019-05-21T09:58:06.669Z,15.50
2019-05-21T09:59:06.650Z,15.10
2019-05-21T10:00:06.619Z,14.20
2019-05-21T10:01:06.673Z,15.00
2019-05-21T10:02:06.557Z,15.70
2019-05-21T10:03:06.684Z,13.10
2019-05-21T10:04:06.507Z,15.60
2019-05-21T10:05:07.616Z,16.00
2019-05-21T10:06:06.449Z,15.30
2019-05-21T10:07:06.506Z,16.00
2019-05-21T10:08:06.394Z,14.90
2019-05-21T10:09:06.532Z,16.30
2019-05-21T10:10:06.334Z,14.80
2019-05-21T10:11:06.425Z,14.30
2019-05-21T10:12:06.285Z,15.50
2019-05-21T10:13:06.338Z,15.90
2019-05-21T10:14:06.245Z,20.50
2019-05-21T10:15:07.397Z,15.40
2019-05-21T10:16:06.175Z,14.10
2019-05-21T10:17:08.207Z,16.40
2019-05-21T10:18:06.118Z,19.10
2019-05-21T10:19:06.085Z,17.60
2019-05-21T10:20:06.048Z,14.90
2019-05-21T10:21:06.024Z,16.90
2019-05-21T10:22:06.262Z,16.80
2019-05-21T10:23:05.971Z,16.10
2019-05-21T10:24:05.972Z,16.70
2019-05-21T10:25:05.950Z,17.10
2019-05-21T10:26:05.913Z,17.80
2019-05-21T10:27:05.860Z,14.80
2019-05-21T10:28:05.939Z,17.10
2019-05-21T10:29:05.802Z,16.70
2019-05-21T10:30:05.835Z,18.10
2019-05-21T10:31:05.735Z,17.00
2019-05-21T10:32:05.747Z,15.80
2019-05-21T10:33:05.687Z,18.70
2019-05-21T10:34:05.764Z,13.70
2019-05-21T10:35:05.972Z,15.80
2019-05-21T10:36:05.674Z,15.00
2019-05-21T10:37:05.571Z,17.70
2019-05-21T10:38:05.595Z,17.90
2019-05-21T10:39:05.509Z,17.50
2019-05-21T10:40:05.497Z,16.80
2019-05-21T10:41:05.462Z,15.90
2019-05-21T10:42:05.518Z,15.40
2019-05-21T10:43:05.396Z,15.10
2019-05-21T10:44:05.423Z,15.10
2019-05-21T10:45:05.347Z,16.50
2019-05-21T10:46:05.344Z,16.30
2019-05-21T10:47:05.283Z,14.50
2019-05-21T10:48:05.351Z,17.00
2019-05-21T10:49:05.227Z,16.10
2019-05-21T10:50:05.261Z,17.70
2019-05-21T10:51:05.171Z,17.70
2019-05-21T10:52:05.153Z,16.10
2019-05-21T10:53:05.116Z,15.60
2019-05-21T10:54:05.092Z,18.20
2019-05-21T10:55:05.064Z,18.30
2019-05-21T10:56:05.142Z,17.70
2019-05-21T10:57:05.036Z,16.20
2019-05-21T10:58:05.029Z,16.50
2019-05-21T10:59:04.947Z,18.50
2019-05-21T11:00:04.967Z,18.10
2019-05-21T11:01:04.882Z,18.60
2019-05-21T11:02:04.887Z,18.50
2019-05-21T11:03:04.831Z,17.10
2019-05-21T11:04:04.839Z,17.90
2019-05-21T11:05:04.802Z,17.20
2019-05-21T11:06:10.212Z,19.80
2019-05-21T11:07:04.718Z,16.10
2019-05-21T11:08:22.771Z,19.40
2019-05-21T11:09:04.668Z,15.60
2019-05-21T11:10:04.628Z,14.70
2019-05-21T11:11:04.602Z,18.30
2019-05-21T11:12:04.575Z,18.10
2019-05-21T11:13:04.647Z,15.90
2019-05-21T11:14:04.520Z,17.30
2019-05-21T11:15:04.567Z,15.90
2019-05-21T11:16:04.463Z,18.30
2019-05-21T11:17:05.499Z,17.70
2019-05-21T11:18:10.951Z,18.50
2019-05-21T11:19:04.489Z,17.90
2019-05-21T11:20:04.356Z,17.10
2019-05-21T11:21:04.400Z,16.20
2019-05-21T11:22:04.293Z,17.20
2019-05-21T11:23:04.318Z,17.30
2019-05-21T11:24:04.258Z,17.30
2019-05-21T11:25:04.321Z,19.20
2019-05-21T11:26:05.613Z,17.80
2019-05-21T11:27:04.873Z,17.70
2019-05-21T11:28:06.202Z,17.90
2019-05-21T11:29:04.115Z,16.80
2019-05-21T11:30:04.071Z,18.10
2019-05-21T11:31:04.137Z,19.20
2019-05-21T11:32:04.014Z,16.90
2019-05-21T11:33:04.039Z,18.00
2019-05-21T11:34:03.964Z,19.40
2019-05-21T11:35:03.956Z,15.60
2019-05-21T11:36:03.944Z,16.20
2019-05-21T11:37:04.047Z,16.20
2019-05-21T11:38:03.845Z,19.00
2019-05-21T11:39:03.875Z,18.90
2019-05-21T11:40:03.782Z,15.00
2019-05-21T11:41:04.831Z,17.10
2019-05-21T11:42:03.728Z,18.80
2019-05-21T11:43:03.802Z,17.10
2019-05-21T11:44:03.675Z,17.50
2019-05-21T11:45:03.750Z,17.50
2019-05-21T11:46:03.670Z,17.90
2019-05-21T11:47:03.625Z,16.80
2019-05-21T11:48:03.558Z,17.20
2019-05-21T11:49:03.662Z,15.00
2019-05-21T11:50:03.505Z,17.40
2019-05-21T11:51:03.620Z,15.20
2019-05-21T11:52:03.445Z,18.30
2019-05-21T11:53:04.489Z,16.30
2019-05-21T11:54:03.401Z,18.30
2019-05-21T11:55:03.481Z,17.60
2019-05-21T11:56:03.409Z,16.10
2019-05-21T11:57:03.394Z,16.90
2019-05-21T11:58:03.281Z,18.10
2019-05-21T11:59:03.292Z,17.60
2019-05-21T12:00:03.220Z,16.80
2019-05-21T12:01:03.295Z,17.60
2019-05-21T12:02:03.168Z,17.70
2019-05-21T12:03:03.210Z,19.50
2019-05-21T12:04:03.114Z,15.40
2019-05-21T12:05:03.126Z,17.20
2019-05-21T12:06:03.093Z,15.10
2019-05-21T12:07:03.730Z,17.40
2019-05-21T12:08:03.002Z,16.60
2019-05-21T12:09:03.042Z,17.30
2019-05-21T12:10:05.633Z,16.00
2019-05-21T12:11:02.916Z,17.60
2019-05-21T12:12:04.013Z,16.70
2019-05-21T12:13:02.895Z,18.60
2019-05-21T12:14:02.832Z,17.10
2019-05-21T12:15:02.805Z,18.50
2019-05-21T12:16:10.658Z,17.40
2019-05-21T12:17:02.750Z,17.60
2019-05-21T12:18:04.915Z,17.40
2019-05-21T12:19:02.691Z,16.30
2019-05-21T12:20:02.705Z,17.30
2019-05-21T12:21:02.630Z,16.10
2019-05-21T12:22:02.713Z,15.50
2019-05-21T12:23:02.596Z,15.20
2019-05-21T12:24:02.628Z,17.00
2019-05-21T12:25:02.544Z,16.60
2019-05-21T12:26:03.603Z,16.30
2019-05-21T12:27:02.489Z,17.60
2019-05-21T12:28:02.551Z,15.10
2019-05-21T12:29:02.441Z,17.40
2019-05-21T12:30:03.393Z,16.50
2019-05-21T12:31:02.362Z,16.90
2019-05-21T12:32:02.382Z,16.20
2019-05-21T12:33:02.303Z,16.80
2019-05-21T12:34:02.271Z,13.80
2019-05-21T12:35:02.304Z,15.30
2019-05-21T12:36:02.220Z,17.80
2019-05-21T12:37:02.331Z,15.20
2019-05-21T12:38:02.155Z,15.50
2019-05-21T12:39:13.754Z,14.90
2019-05-21T12:40:02.107Z,14.00
2019-05-21T12:41:02.120Z,13.70
2019-05-21T12:42:02.108Z,16.60
2019-05-21T12:43:03.044Z,14.40
2019-05-21T12:44:01.990Z,14.20
2019-05-21T12:45:03.100Z,14.30
2019-05-21T12:46:01.939Z,14.20
2019-05-21T12:47:02.912Z,14.70
2019-05-21T12:48:01.893Z,15.70
2019-05-21T12:49:02.858Z,13.80
2019-05-21T12:50:01.845Z,14.20
2019-05-21T12:51:01.790Z,16.00
2019-05-21T12:52:01.751Z,16.30
2019-05-21T12:53:01.727Z,17.20
2019-05-21T12:54:01.701Z,14.30
2019-05-21T12:55:09.710Z,15.70
2019-05-21T12:56:01.644Z,12.70